createdAt,value
2022-08-03T02:57:23.320Z,95713.25
2022-08-03T02:59:51.764Z,95717.91
2022-08-03T03:02:19.840Z,95716.47
2022-08-03T03:05:51.600Z,95707.97
2022-08-03T03:07:52.149Z,95718.19
2022-08-03T03:10:21.868Z,95725.44
2022-08-03T03:12:53.806Z,95726.56
2022-08-03T03:15:21.393Z,95718.69
2022-08-03T03:17:49.863Z,95728.03
2022-08-03T03:20:30.158Z,95720.19
2022-08-03T03:23:01.452Z,95723.22
2022-08-03T03:25:33.231Z,95731.22
2022-08-03T03:28:01.275Z,95730.63
2022-08-03T03:30:30.017Z,95726.50
2022-08-03T03:32:58.523Z,95724.13
2022-08-03T03:35:27.846Z,95732.00
2022-08-03T03:37:55.188Z,95732.47
2022-08-03T03:40:22.454Z,95736.16
2022-08-03T03:42:50.008Z,95730.38
2022-08-03T03:45:17.838Z,95734.38
2022-08-03T03:47:44.888Z,95742.06
2022-08-03T03:50:12.557Z,95734.69
2022-08-03T03:52:39.759Z,95735.50
2022-08-03T03:55:07.184Z,95743.19
2022-08-03T03:57:34.397Z,95734.56
2022-08-03T04:00:07.365Z,95732.94
2022-08-03T04:02:36.355Z,95734.06
2022-08-03T04:05:44.232Z,95728.16
2022-08-03T04:08:36.348Z,95736.16
2022-08-03T04:11:30.371Z,95733.59
2022-08-03T04:14:03.394Z,95738.88
2022-08-03T04:16:32.469Z,95741.13
2022-08-03T04:19:01.968Z,95736.00
2022-08-03T04:21:30.217Z,95746.09
2022-08-03T04:24:00.365Z,95738.28
2022-08-03T04:26:29.849Z,95742.13
2022-08-03T04:28:57.496Z,95741.94
2022-08-03T04:31:25.772Z,95743.25
2022-08-03T04:33:53.506Z,95751.59
2022-08-03T04:36:22.148Z,95744.25
2022-08-03T04:39:08.206Z,95749.53
2022-08-03T04:42:07.693Z,95747.75
2022-08-03T04:44:28.417Z,95754.16
2022-08-03T04:46:56.850Z,95758.81
2022-08-03T04:49:27.237Z,95759.75
2022-08-03T04:51:54.627Z,95756.22
2022-08-03T04:54:21.795Z,95758.94
2022-08-03T04:56:48.889Z,95759.22
2022-08-03T04:59:17.745Z,95763.78
2022-08-03T05:01:44.884Z,95767.66
2022-08-03T05:04:12.093Z,95772.63
2022-08-03T05:06:41.420Z,95774.66
2022-08-03T05:09:16.027Z,95776.84
2022-08-03T05:12:03.269Z,95779.94
2022-08-03T05:15:24.698Z,95775.75
2022-08-03T05:21:18.926Z,95784.66
2022-08-03T05:23:52.397Z,95773.88
2022-08-03T05:26:47.009Z,95781.63
2022-08-03T05:29:14.251Z,95776.59
2022-08-03T05:31:43.234Z,95789.91
2022-08-03T05:34:10.327Z,95784.28
2022-08-03T05:36:37.411Z,95781.25
2022-08-03T05:39:04.437Z,95780.78
2022-08-03T05:41:41.447Z,95786.38
2022-08-03T05:44:08.575Z,95786.47
2022-08-03T05:46:35.622Z,95786.03
2022-08-03T05:49:02.783Z,95776.06
2022-08-03T05:51:32.741Z,95784.56
2022-08-03T05:53:59.764Z,95788.63
2022-08-03T06:07:45.493Z,95784.25
2022-08-03T06:10:37.534Z,95791.91
2022-08-03T06:14:30.848Z,95786.25
2022-08-03T06:17:37.723Z,95789.78
2022-08-03T06:21:56.155Z,95794.22
2022-08-03T06:30:36.288Z,95789.78
2022-08-03T06:34:31.051Z,95793.19
2022-08-03T06:36:44.119Z,95797.47
2022-08-03T06:39:13.450Z,95790.09
2022-08-03T06:41:44.561Z,95790.31
2022-08-03T06:45:11.065Z,95792.28
2022-08-03T06:47:39.287Z,95799.56
2022-08-03T06:50:14.223Z,95804.25
2022-08-03T06:52:44.528Z,95797.63
2022-08-03T06:55:11.572Z,95802.66
2022-08-03T06:57:38.669Z,95798.75
2022-08-03T07:00:11.925Z,95803.47
2022-08-03T07:02:39.963Z,95799.69
2022-08-03T07:05:07.884Z,95802.31
2022-08-03T07:07:34.942Z,95807.66
2022-08-03T07:10:02.565Z,95811.06
2022-08-03T07:15:54.560Z,95813.72
2022-08-03T07:18:08.734Z,95807.03
2022-08-03T07:20:35.983Z,95810.25
2022-08-03T07:23:03.132Z,95808.59
2022-08-03T07:25:30.164Z,95806.63
2022-08-03T07:27:57.225Z,95811.41
2022-08-03T07:33:50.014Z,95801.25
2022-08-03T07:37:14.430Z,95802.06
2022-08-03T07:40:32.286Z,95804.31
2022-08-03T07:43:14.557Z,95805.13
2022-08-03T07:45:41.617Z,95806.69
2022-08-03T07:48:12.127Z,95805.34
2022-08-03T07:50:39.488Z,95807.84
2022-08-03T07:53:06.504Z,95805.53
2022-08-03T07:55:33.759Z,95807.06
2022-08-03T07:58:05.336Z,95812.97
2022-08-03T08:00:32.458Z,95797.16
2022-08-03T08:02:59.585Z,95810.09
2022-08-03T08:05:27.900Z,95807.53
2022-08-03T08:07:55.516Z,95796.19
2022-08-03T08:10:23.036Z,95799.22
2022-08-03T08:12:52.324Z,95796.94
2022-08-03T08:15:19.782Z,95798.34
2022-08-03T08:17:48.221Z,95796.16
2022-08-03T08:20:17.476Z,95797.50
2022-08-03T08:22:55.558Z,95805.06
2022-08-03T08:25:22.627Z,95803.09
2022-08-03T08:28:29.831Z,95801.53
2022-08-03T08:30:37.129Z,95796.03
2022-08-03T08:33:04.265Z,95797.56
2022-08-03T08:35:31.400Z,95791.25
2022-08-03T08:37:59.789Z,95786.50
2022-08-03T08:40:32.688Z,95789.66
2022-08-03T08:42:59.892Z,95796.75
2022-08-03T08:45:27.602Z,95797.97
2022-08-03T08:48:00.200Z,95786.47
2022-08-03T08:50:29.729Z,95788.47
2022-08-03T08:52:59.359Z,95781.22
2022-08-03T08:55:26.491Z,95782.00
2022-08-03T08:57:59.016Z,95782.41
2022-08-03T09:00:26.177Z,95781.19
2022-08-03T09:02:53.244Z,95779.94
2022-08-03T09:05:27.785Z,95779.78
2022-08-03T09:08:05.485Z,95785.06
2022-08-03T09:10:32.540Z,95779.91
2022-08-03T09:12:59.668Z,95774.28
2022-08-03T09:15:31.386Z,95782.59
2022-08-03T09:17:59.606Z,95774.13
2022-08-03T09:20:28.158Z,95777.66
2022-08-03T09:23:26.334Z,95776.81
2022-08-03T09:26:00.197Z,95774.75
2022-08-03T09:28:59.782Z,95774.66
2022-08-03T09:31:20.525Z,95770.75
2022-08-03T09:33:48.705Z,95774.59
2022-08-03T09:36:34.595Z,95780.91
2022-08-03T09:39:06.369Z,95778.97
2022-08-03T09:41:33.729Z,95773.72
2022-08-03T09:44:00.831Z,95771.38
2022-08-03T09:46:31.743Z,95775.69
2022-08-03T09:49:13.975Z,95774.94
2022-08-03T09:52:32.367Z,95782.38
2022-08-03T09:54:29.246Z,95776.03
2022-08-03T09:56:57.153Z,95778.25
2022-08-03T09:59:25.481Z,95770.88
2022-08-03T10:01:53.412Z,95773.88
2022-08-03T10:04:20.569Z,95773.06
2022-08-03T10:07:04.551Z,95772.22
2022-08-03T10:09:31.911Z,95776.00
2022-08-03T10:12:06.947Z,95767.84
2022-08-03T10:14:34.036Z,95767.47
2022-08-03T10:17:01.323Z,95759.25
2022-08-03T10:19:28.439Z,95761.47
2022-08-03T10:21:57.861Z,95756.66
2022-08-03T10:24:26.379Z,95749.22
2022-08-03T10:26:55.387Z,95752.28
2022-08-03T10:29:25.154Z,95759.81
2022-08-03T10:31:57.282Z,95760.31
2022-08-03T10:34:26.984Z,95749.34
2022-08-03T10:36:57.072Z,95744.16
2022-08-03T10:39:27.435Z,95747.72
2022-08-03T10:41:55.298Z,95746.06
2022-08-03T10:44:24.296Z,95745.78
2022-08-03T10:46:51.654Z,95742.53
2022-08-03T10:49:33.569Z,95737.44
2022-08-03T10:52:05.253Z,95734.56
2022-08-03T10:55:03.533Z,95730.63
2022-08-03T10:57:49.001Z,95729.31
2022-08-03T11:00:18.241Z,95723.53
2022-08-03T11:03:04.202Z,95737.75
2022-08-03T11:05:32.224Z,95732.16
2022-08-03T11:08:25.762Z,95715.66
2022-08-03T11:10:54.731Z,95721.22
2022-08-03T11:13:23.109Z,95728.63
2022-08-03T11:15:51.758Z,95713.06
2022-08-03T11:18:19.416Z,95720.31
2022-08-03T11:20:51.247Z,95720.09
2022-08-03T11:23:20.559Z,95709.56
2022-08-03T11:26:22.452Z,95710.19
2022-08-03T11:28:49.536Z,95713.97
2022-08-03T11:31:48.210Z,95710.31
2022-08-03T11:34:10.464Z,95707.06
2022-08-03T11:36:56.380Z,95703.22
2022-08-03T11:39:37.496Z,95708.31
2022-08-03T11:42:24.786Z,95703.59
2022-08-03T11:44:53.303Z,95704.16
2022-08-03T11:47:21.361Z,95707.09
2022-08-03T11:49:50.057Z,95708.78
2022-08-03T11:52:17.750Z,95703.94
2022-08-03T11:54:45.583Z,95698.28
2022-08-03T11:57:12.724Z,95694.41
2022-08-03T11:59:39.861Z,95695.66
2022-08-03T12:02:07.477Z,95699.22
2022-08-03T12:04:54.019Z,95697.88
2022-08-03T12:07:24.471Z,95691.91
2022-08-03T12:10:12.492Z,95697.63
2022-08-03T12:12:43.360Z,95683.25
2022-08-03T12:15:13.315Z,95688.13
2022-08-03T12:17:41.405Z,95694.47
2022-08-03T12:20:09.701Z,95693.31
2022-08-03T12:22:40.401Z,95684.13
2022-08-03T12:25:08.330Z,95685.28
2022-08-03T12:27:35.931Z,95676.09
2022-08-03T12:30:04.623Z,95682.06
2022-08-03T12:32:31.700Z,95678.28
2022-08-03T12:35:01.289Z,95685.56
2022-08-03T12:37:29.521Z,95674.16
2022-08-03T12:40:02.698Z,95672.34
2022-08-03T12:42:37.082Z,95669.66
2022-08-03T12:45:23.181Z,95676.38
2022-08-03T12:47:57.809Z,95669.59
2022-08-03T12:50:29.529Z,95663.13
2022-08-03T12:52:57.630Z,95663.47
2022-08-03T12:55:25.591Z,95657.97
2022-08-03T12:57:52.643Z,95657.00
2022-08-03T13:00:21.742Z,95654.06
2022-08-03T13:03:38.448Z,95662.22
2022-08-03T13:05:48.426Z,95655.31
2022-08-03T13:08:19.541Z,95662.44
2022-08-03T13:10:46.867Z,95656.03
2022-08-03T13:13:14.076Z,95651.94
2022-08-03T13:15:47.688Z,95650.03
2022-08-03T13:18:17.235Z,95660.03
2022-08-03T13:20:44.915Z,95663.06
2022-08-03T13:23:13.910Z,95655.06
2022-08-03T13:25:55.410Z,95650.78
2022-08-03T13:28:23.169Z,95648.47
2022-08-03T13:30:50.232Z,95653.25
2022-08-03T13:33:17.616Z,95655.66
2022-08-03T13:35:44.768Z,95653.38
2022-08-03T13:38:11.878Z,95646.03
2022-08-03T13:40:41.293Z,95639.38
2022-08-03T13:43:09.266Z,95635.91
2022-08-03T13:45:36.381Z,95645.31
2022-08-03T13:48:03.529Z,95637.75
2022-08-03T13:50:31.381Z,95634.19
2022-08-03T13:52:58.479Z,95634.00
2022-08-03T13:55:25.609Z,95637.63
2022-08-03T13:58:03.617Z,95632.44
2022-08-03T14:00:34.132Z,95622.09
2022-08-03T14:03:17.366Z,95626.59
2022-08-03T14:05:45.327Z,95623.81
2022-08-03T14:08:12.455Z,95626.25
2022-08-03T14:10:43.198Z,95621.75
2022-08-03T14:13:11.348Z,95618.56
2022-08-03T14:15:38.861Z,95622.88
2022-08-03T14:18:15.456Z,95615.78
2022-08-03T14:20:49.031Z,95621.09
2022-08-03T14:23:21.804Z,95614.78
2022-08-03T14:28:39.182Z,95615.31
2022-08-03T14:31:08.353Z,95605.84
2022-08-03T14:33:42.724Z,95605.06
2022-08-03T14:36:09.817Z,95610.94
2022-08-03T14:38:39.047Z,95613.78
2022-08-03T14:41:06.202Z,95604.25
2022-08-03T14:44:00.318Z,95607.44
2022-08-03T14:46:29.599Z,95602.94
2022-08-03T14:50:32.161Z,95608.09
2022-08-03T14:51:53.535Z,95601.28
2022-08-03T14:54:21.454Z,95602.63
2022-08-03T14:56:48.503Z,95593.22
2022-08-03T14:59:15.578Z,95599.69
2022-08-03T15:02:02.107Z,95597.56
2022-08-03T15:04:30.603Z,95593.34
2022-08-03T15:06:57.744Z,95591.91
2022-08-03T15:09:24.858Z,95585.63
2022-08-03T15:11:52.440Z,95586.44
2022-08-03T15:14:20.137Z,95579.31
2022-08-03T15:16:55.403Z,95576.91
2022-08-03T15:20:00.880Z,95584.44
2022-08-03T15:22:11.798Z,95578.53
2022-08-03T15:24:40.086Z,95577.34
2022-08-03T15:27:07.325Z,95569.06
2022-08-03T15:30:05.129Z,95577.03
2022-08-03T15:32:22.576Z,95580.59
2022-08-03T15:34:50.938Z,95567.78
2022-08-03T15:37:18.941Z,95570.56
2022-08-03T15:39:59.106Z,95576.53
2022-08-03T15:42:31.026Z,95565.19
2022-08-03T15:44:59.605Z,95572.28
2022-08-03T15:47:26.760Z,95576.22
2022-08-03T15:49:53.959Z,95571.47
2022-08-03T15:52:21.290Z,95567.13
2022-08-03T15:54:48.374Z,95570.72
2022-08-03T15:57:15.461Z,95575.47
2022-08-03T15:59:42.506Z,95567.09
2022-08-03T16:02:09.940Z,95573.47
2022-08-03T16:04:37.041Z,95567.53
2022-08-03T16:07:04.477Z,95572.34
2022-08-03T16:09:43.318Z,95573.06
2022-08-03T16:12:15.578Z,95571.09
2022-08-03T16:14:52.937Z,95565.22
2022-08-03T16:17:21.489Z,95566.47
2022-08-03T16:19:48.886Z,95562.94
2022-08-03T16:22:17.473Z,95564.13
2022-08-03T16:24:46.963Z,95559.78
2022-08-03T16:27:17.690Z,95560.19
2022-08-03T16:30:02.139Z,95556.25
2022-08-03T16:32:29.234Z,95557.47
2022-08-03T16:34:56.273Z,95559.41
2022-08-03T16:37:38.311Z,95553.53
2022-08-03T16:40:09.123Z,95549.16
2022-08-03T16:42:44.811Z,95553.53
2022-08-03T16:45:12.014Z,95555.91
2022-08-03T16:47:39.123Z,95551.16
2022-08-03T16:50:14.284Z,95550.38
2022-08-03T16:52:47.203Z,95551.19
2022-08-03T16:55:15.897Z,95551.59
2022-08-03T16:57:59.549Z,95552.75
2022-08-03T17:00:32.916Z,95549.59
2022-08-03T17:03:04.599Z,95547.22
2022-08-03T17:05:46.826Z,95548.81
2022-08-03T17:08:15.754Z,95549.59
2022-08-03T17:10:44.484Z,95551.19
2022-08-03T17:13:21.561Z,95546.47
2022-08-03T17:16:00.848Z,95552.00
2022-08-03T17:18:34.950Z,95554.75
2022-08-03T17:21:05.047Z,95545.69
2022-08-03T17:23:38.208Z,95562.25
2022-08-03T17:26:14.737Z,95559.50
2022-08-03T17:28:57.690Z,95563.84
2022-08-03T17:31:31.312Z,95559.09
2022-08-03T17:34:04.568Z,95562.66
2022-08-03T17:37:02.303Z,95566.59
2022-08-03T17:39:36.186Z,95568.97
2022-08-03T17:42:38.941Z,95569.75
2022-08-03T17:44:57.470Z,95567.78
2022-08-03T17:47:40.985Z,95566.59
2022-08-03T17:50:24.192Z,95565.38
2022-08-03T17:52:57.370Z,95566.97
2022-08-03T17:55:56.534Z,95567.72
2022-08-03T17:58:33.020Z,95573.63
2022-08-03T18:01:57.099Z,95574.81
2022-08-03T18:04:10.784Z,95575.59
2022-08-03T18:06:56.578Z,95579.13
2022-08-03T18:10:06.129Z,95575.97
2022-08-03T18:12:22.301Z,95581.09
2022-08-03T18:14:57.928Z,95583.44
2022-08-03T18:17:55.636Z,95585.41
2022-08-03T18:20:31.194Z,95577.09
2022-08-03T18:23:04.737Z,95583.75
2022-08-03T18:25:44.384Z,95580.16
2022-08-03T18:28:17.761Z,95580.50
2022-08-03T18:30:54.587Z,95584.00
2022-08-03T18:34:19.157Z,95585.56
2022-08-03T18:36:18.002Z,95585.53
2022-08-03T18:38:51.744Z,95589.03
2022-08-03T18:41:33.271Z,95588.22
2022-08-03T18:44:07.845Z,95588.13
2022-08-03T18:46:42.553Z,95589.25
2022-08-03T18:49:29.170Z,95586.75
2022-08-03T18:52:03.612Z,95588.25
2022-08-03T18:54:45.487Z,95597.22
2022-08-03T19:00:05.251Z,95593.56
2022-08-03T19:02:48.918Z,95599.88
2022-08-03T19:05:18.077Z,95607.38
2022-08-03T19:07:50.941Z,95618.00
2022-08-03T19:10:29.327Z,95601.81
2022-08-03T19:13:03.052Z,95610.00
2022-08-03T19:15:37.141Z,95610.75
2022-08-03T19:18:11.121Z,95617.78
2022-08-03T19:20:38.358Z,95604.31
2022-08-03T19:23:06.474Z,95610.59
2022-08-03T19:25:37.870Z,95613.69
2022-08-03T19:28:06.164Z,95612.84
2022-08-03T19:30:39.980Z,95610.44
2022-08-03T19:33:08.921Z,95620.59
2022-08-03T19:35:54.799Z,95618.63
2022-08-03T19:38:27.618Z,95617.78
2022-08-03T19:41:03.697Z,95627.19
2022-08-03T19:43:53.876Z,95627.19
2022-08-03T19:46:30.209Z,95622.81
2022-08-03T19:49:14.999Z,95632.16
2022-08-03T19:52:02.538Z,95621.13
2022-08-03T19:54:36.041Z,95617.13
2022-08-03T19:57:03.440Z,95623.72
2022-08-03T19:59:33.549Z,95623.28
2022-08-03T20:02:00.753Z,95618.47
2022-08-03T20:04:27.841Z,95621.56
2022-08-03T20:06:57.157Z,95617.59
2022-08-03T20:09:24.482Z,95618.72
2022-08-03T20:11:57.844Z,95619.50
2022-08-03T20:14:26.386Z,95622.97
2022-08-03T20:16:54.212Z,95623.31
2022-08-03T20:19:21.484Z,95617.75
2022-08-03T20:21:50.034Z,95610.91
2022-08-03T20:24:24.287Z,95622.69
2022-08-03T20:26:53.611Z,95612.72
2022-08-03T20:29:42.702Z,95610.69
2022-08-03T20:32:26.569Z,95615.31
2022-08-03T20:34:59.588Z,95612.56
2022-08-03T20:37:26.904Z,95614.91
2022-08-03T20:39:57.653Z,95614.47
2022-08-03T20:42:24.859Z,95621.13
2022-08-03T20:45:06.880Z,95613.97
2022-08-03T20:47:50.804Z,95611.94
2022-08-03T20:50:18.325Z,95616.63
2022-08-03T20:52:49.659Z,95608.66
2022-08-03T20:55:17.876Z,95614.47
2022-08-03T20:57:51.614Z,95608.53
2022-08-03T21:00:21.864Z,95606.97
2022-08-03T21:02:49.301Z,95611.63
2022-08-03T21:05:16.417Z,95611.56
2022-08-03T21:08:05.409Z,95615.41
2022-08-03T21:10:35.810Z,95610.22
2022-08-03T21:13:17.691Z,95607.78
2022-08-03T21:16:13.135Z,95611.97
2022-08-03T21:18:37.958Z,95615.03
2022-08-03T21:21:06.265Z,95612.59
2022-08-03T21:23:48.121Z,95611.69
2022-08-03T21:26:17.529Z,95613.91
2022-08-03T21:28:45.900Z,95616.94
2022-08-03T21:31:13.543Z,95612.19
2022-08-03T21:33:40.929Z,95610.59
2022-08-03T21:36:14.367Z,95618.75
2022-08-03T21:38:42.083Z,95618.97
2022-08-03T21:41:09.362Z,95607.59
2022-08-03T21:43:36.587Z,95611.06
2022-08-03T21:46:05.130Z,95605.44
2022-08-03T21:48:38.978Z,95605.72
2022-08-03T21:51:09.614Z,95602.09
2022-08-03T21:54:02.927Z,95603.63
2022-08-03T21:56:26.159Z,95603.56
2022-08-03T21:58:55.730Z,95605.09
2022-08-03T22:01:24.778Z,95607.03
2022-08-03T22:03:54.077Z,95613.69
2022-08-03T22:06:22.512Z,95614.38
2022-08-03T22:08:54.416Z,95604.94
2022-08-03T22:11:21.677Z,95607.25
2022-08-03T22:13:48.945Z,95603.28
2022-08-03T22:16:16.107Z,95606.38
2022-08-03T22:18:44.263Z,95604.38
2022-08-03T22:21:12.404Z,95603.03
2022-08-03T22:23:44.256Z,95609.94
2022-08-03T22:26:14.141Z,95612.63
2022-08-03T22:28:41.852Z,95606.69
2022-08-03T22:31:31.025Z,95609.78
2022-08-03T22:33:56.273Z,95613.25
2022-08-03T22:36:24.138Z,95607.28
2022-08-03T22:38:51.910Z,95613.81
2022-08-03T22:41:19.902Z,95608.28
2022-08-03T22:43:47.052Z,95612.44
2022-08-03T22:46:18.566Z,95616.25
2022-08-03T22:48:46.608Z,95623.16
2022-08-03T22:51:15.227Z,95618.03
2022-08-03T22:53:44.719Z,95618.38
2022-08-03T22:56:11.881Z,95620.69
2022-08-03T22:58:39.028Z,95624.50
2022-08-03T23:01:07.611Z,95620.44
2022-08-03T23:03:58.645Z,95621.59
2022-08-03T23:06:23.879Z,95632.69
2022-08-03T23:08:51.005Z,95625.28
2022-08-03T23:11:18.748Z,95629.53
2022-08-03T23:13:48.665Z,95621.66
2022-08-03T23:16:16.219Z,95626.69
2022-08-03T23:18:57.861Z,95630.97
2022-08-03T23:21:53.593Z,95625.38
2022-08-03T23:24:19.189Z,95629.19
2022-08-03T23:26:57.707Z,95629.53
2022-08-03T23:29:26.239Z,95636.97
2022-08-03T23:31:53.727Z,95628.28
2022-08-03T23:34:39.752Z,95631.38
2022-08-03T23:37:06.886Z,95631.75
2022-08-03T23:39:35.276Z,95627.41
2022-08-03T23:42:03.174Z,95635.97
2022-08-03T23:44:31.282Z,95630.84
2022-08-03T23:46:58.387Z,95631.19
2022-08-03T23:49:25.508Z,95629.63
2022-08-03T23:52:01.503Z,95635.88
2022-08-03T23:54:47.172Z,95629.53
2022-08-03T23:57:14.331Z,95625.53
2022-08-03T23:59:57.362Z,95631.41
